sensor_id;sensor_type;location;lat;lon;timestamp;pressure;altitude;pressure_sealevel;temperature;humidity
75157;BME280;63736;50.076;8.198;2023-09-08T00:00:08;99737.44;;;18.33;96.60
75157;BME280;63736;50.076;8.198;2023-09-08T00:02:34;99728.69;;;18.31;96.70
75157;BME280;63736;50.076;8.198;2023-09-08T00:04:59;99727.34;;;18.27;96.82
75157;BME280;63736;50.076;8.198;2023-09-08T00:07:25;99725.16;;;18.23;97.29
75157;BME280;63736;50.076;8.198;2023-09-08T00:09:50;99731.25;;;18.16;97.94
75157;BME280;63736;50.076;8.198;2023-09-08T00:12:16;99728.41;;;18.10;98.83
75157;BME280;63736;50.076;8.198;2023-09-08T00:14:41;99723.88;;;18.02;99.71
75157;BME280;63736;50.076;8.198;2023-09-08T00:17:07;99718.47;;;17.94;100.00
75157;BME280;63736;50.076;8.198;2023-09-08T00:19:32;99721.84;;;17.88;100.00
75157;BME280;63736;50.076;8.198;2023-09-08T00:21:57;99724.38;;;17.81;100.00
75157;BME280;63736;50.076;8.198;2023-09-08T00:24:24;99723.03;;;17.77;100.00
75157;BME280;63736;50.076;8.198;2023-09-08T00:26:49;99714.59;;;17.72;100.00
75157;BME280;63736;50.076;8.198;2023-09-08T00:29:14;99719.50;;;17.68;100.00
75157;BME280;63736;50.076;8.198;2023-09-08T00:31:42;99721.00;;;17.71;100.00
75157;BME280;63736;50.076;8.198;2023-09-08T00:34:07;99716.63;;;17.70;100.00
75157;BME280;63736;50.076;8.198;2023-09-08T00:36:33;99717.97;;;17.65;100.00
75157;BME280;63736;50.076;8.198;2023-09-08T00:38:58;99717.28;;;17.63;100.00
75157;BME280;63736;50.076;8.198;2023-09-08T00:41:23;99723.88;;;17.61;100.00
75157;BME280;63736;50.076;8.198;2023-09-08T00:43:49;99717.13;;;17.57;100.00
75157;BME280;63736;50.076;8.198;2023-09-08T00:46:16;99718.50;;;17.53;100.00
75157;BME280;63736;50.076;8.198;2023-09-08T00:48:41;99722.72;;;17.47;100.00
75157;BME280;63736;50.076;8.198;2023-09-08T00:51:08;99721.53;;;17.41;100.00
75157;BME280;63736;50.076;8.198;2023-09-08T00:53:35;99718.66;;;17.34;100.00
75157;BME280;63736;50.076;8.198;2023-09-08T00:56:02;99724.56;;;17.30;100.00
75157;BME280;63736;50.076;8.198;2023-09-08T00:58:28;99720.66;;;17.24;100.00
75157;BME280;63736;50.076;8.198;2023-09-08T01:00:54;99720.19;;;17.21;100.00
75157;BME280;63736;50.076;8.198;2023-09-08T01:03:19;99721.50;;;17.16;100.00
75157;BME280;63736;50.076;8.198;2023-09-08T01:05:45;99721.03;;;17.13;100.00
75157;BME280;63736;50.076;8.198;2023-09-08T01:08:12;99718.81;;;17.08;100.00
75157;BME280;63736;50.076;8.198;2023-09-08T01:10:40;99721.84;;;17.05;100.00
75157;BME280;63736;50.076;8.198;2023-09-08T01:13:07;99717.81;;;17.01;100.00
75157;BME280;63736;50.076;8.198;2023-09-08T01:15:32;99729.78;;;16.98;100.00
75157;BME280;63736;50.076;8.198;2023-09-08T01:17:57;99725.56;;;16.96;100.00
75157;BME280;63736;50.076;8.198;2023-09-08T01:20:30;99734.66;;;16.95;100.00
75157;BME280;63736;50.076;8.198;2023-09-08T01:23:03;99729.56;;;16.92;100.00
75157;BME280;63736;50.076;8.198;2023-09-08T01:25:32;99720.78;;;16.90;100.00
75157;BME280;63736;50.076;8.198;2023-09-08T01:28:01;99725.66;;;16.86;100.00
75157;BME280;63736;50.076;8.198;2023-09-08T01:30:29;99721.44;;;16.83;100.00
75157;BME280;63736;50.076;8.198;2023-09-08T01:32:58;99724.59;;;16.79;100.00
75157;BME280;63736;50.076;8.198;2023-09-08T01:35:24;99736.44;;;16.78;100.00
75157;BME280;63736;50.076;8.198;2023-09-08T01:37:50;99723.94;;;16.77;100.00
75157;BME280;63736;50.076;8.198;2023-09-08T01:40:15;99727.97;;;16.73;100.00
75157;BME280;63736;50.076;8.198;2023-09-08T01:42:41;99717.50;;;16.69;100.00
75157;BME280;63736;50.076;8.198;2023-09-08T01:45:07;99722.41;;;16.74;100.00
75157;BME280;63736;50.076;8.198;2023-09-08T01:47:33;99719.72;;;16.74;100.00
75157;BME280;63736;50.076;8.198;2023-09-08T01:49:59;99719.03;;;16.72;100.00
75157;BME280;63736;50.076;8.198;2023-09-08T01:52:24;99721.22;;;16.68;100.00
75157;BME280;63736;50.076;8.198;2023-09-08T01:54:50;99717.16;;;16.64;100.00
75157;BME280;63736;50.076;8.198;2023-09-08T01:57:15;99714.63;;;16.63;100.00
75157;BME280;63736;50.076;8.198;2023-09-08T01:59:40;99723.72;;;16.62;100.00
75157;BME280;63736;50.076;8.198;2023-09-08T02:02:06;99721.88;;;16.62;100.00
75157;BME280;63736;50.076;8.198;2023-09-08T02:04:32;99722.88;;;16.61;100.00
75157;BME280;63736;50.076;8.198;2023-09-08T02:06:57;99718.66;;;16.59;100.00
75157;BME280;63736;50.076;8.198;2023-09-08T02:09:33;99726.56;;;16.60;100.00
75157;BME280;63736;50.076;8.198;2023-09-08T02:11:59;99724.22;;;16.57;100.00
75157;BME280;63736;50.076;8.198;2023-09-08T02:14:24;99725.22;;;16.56;100.00
75157;BME280;63736;50.076;8.198;2023-09-08T02:16:50;99713.91;;;16.52;100.00
75157;BME280;63736;50.076;8.198;2023-09-08T02:19:15;99707.31;;;16.47;100.00
75157;BME280;63736;50.076;8.198;2023-09-08T02:21:40;99711.19;;;16.44;100.00
75157;BME280;63736;50.076;8.198;2023-09-08T02:24:06;99719.44;;;16.43;100.00
75157;BME280;63736;50.076;8.198;2023-09-08T02:26:31;99727.84;;;16.40;100.00
75157;BME280;63736;50.076;8.198;2023-09-08T02:28:59;99723.63;;;16.37;100.00
75157;BME280;63736;50.076;8.198;2023-09-08T02:31:24;99709.47;;;16.35;100.00
75157;BME280;63736;50.076;8.198;2023-09-08T02:33:49;99711.31;;;16.34;100.00
75157;BME280;63736;50.076;8.198;2023-09-08T02:36:14;99715.34;;;16.30;100.00
75157;BME280;63736;50.076;8.198;2023-09-08T02:38:40;99722.06;;;16.26;100.00
75157;BME280;63736;50.076;8.198;2023-09-08T02:41:05;99722.41;;;16.23;100.00
75157;BME280;63736;50.076;8.198;2023-09-08T02:43:30;99707.53;;;16.19;100.00
75157;BME280;63736;50.076;8.198;2023-09-08T02:45:56;99713.41;;;16.14;100.00
75157;BME280;63736;50.076;8.198;2023-09-08T02:48:21;99721.84;;;16.11;100.00
75157;BME280;63736;50.076;8.198;2023-09-08T02:50:46;99716.22;;;16.05;100.00
75157;BME280;63736;50.076;8.198;2023-09-08T02:53:12;99720.75;;;16.04;100.00
75157;BME280;63736;50.076;8.198;2023-09-08T02:55:37;99723.78;;;16.01;100.00
75157;BME280;63736;50.076;8.198;2023-09-08T02:58:02;99725.09;;;15.97;100.00
75157;BME280;63736;50.076;8.198;2023-09-08T03:00:27;99720.88;;;15.94;100.00
75157;BME280;63736;50.076;8.198;2023-09-08T03:02:53;99720.72;;;15.96;100.00
75157;BME280;63736;50.076;8.198;2023-09-08T03:05:18;99719.94;;;16.04;100.00
75157;BME280;63736;50.076;8.198;2023-09-08T03:07:43;99722.34;;;16.15;100.00
75157;BME280;63736;50.076;8.198;2023-09-08T03:10:09;99728.78;;;16.22;100.00
75157;BME280;63736;50.076;8.198;2023-09-08T03:12:34;99711.28;;;16.26;100.00
75157;BME280;63736;50.076;8.198;2023-09-08T03:15:01;99728.16;;;16.28;100.00
75157;BME280;63736;50.076;8.198;2023-09-08T03:17:26;99724.91;;;16.25;100.00
75157;BME280;63736;50.076;8.198;2023-09-08T03:19:52;99722.53;;;16.22;100.00
75157;BME280;63736;50.076;8.198;2023-09-08T03:22:18;99728.78;;;16.22;100.00
75157;BME280;63736;50.076;8.198;2023-09-08T03:24:43;99719.00;;;16.21;100.00
75157;BME280;63736;50.076;8.198;2023-09-08T03:27:08;99723.69;;;16.19;100.00
75157;BME280;63736;50.076;8.198;2023-09-08T03:29:33;99718.31;;;16.19;100.00
75157;BME280;63736;50.076;8.198;2023-09-08T03:31:59;99710.56;;;16.16;100.00
75157;BME280;63736;50.076;8.198;2023-09-08T03:34:24;99714.09;;;16.16;100.00
75157;BME280;63736;50.076;8.198;2023-09-08T03:36:49;99709.03;;;16.13;100.00
75157;BME280;63736;50.076;8.198;2023-09-08T03:39:15;99709.84;;;16.14;100.00
75157;BME280;63736;50.076;8.198;2023-09-08T03:41:40;99715.41;;;16.12;100.00
75157;BME280;63736;50.076;8.198;2023-09-08T03:44:06;99716.56;;;16.10;100.00
75157;BME280;63736;50.076;8.198;2023-09-08T03:46:31;99702.81;;;16.13;100.00
75157;BME280;63736;50.076;8.198;2023-09-08T03:48:56;99702.13;;;16.19;100.00
75157;BME280;63736;50.076;8.198;2023-09-08T03:51:26;99708.25;;;16.29;100.00
75157;BME280;63736;50.076;8.198;2023-09-08T03:53:51;99713.53;;;16.39;100.00
75157;BME280;63736;50.076;8.198;2023-09-08T03:56:17;99706.63;;;16.45;100.00
75157;BME280;63736;50.076;8.198;2023-09-08T03:58:42;99705.81;;;16.44;100.00
75157;BME280;63736;50.076;8.198;2023-09-08T04:01:07;99709.84;;;16.40;100.00
75157;BME280;63736;50.076;8.198;2023-09-08T04:03:32;99711.66;;;16.40;100.00
75157;BME280;63736;50.076;8.198;2023-09-08T04:05:58;99716.69;;;16.34;100.00
75157;BME280;63736;50.076;8.198;2023-09-08T04:08:23;99713.13;;;16.26;100.00
75157;BME280;63736;50.076;8.198;2023-09-08T04:10:48;99718.16;;;16.21;100.00
75157;BME280;63736;50.076;8.198;2023-09-08T04:13:13;99719.13;;;16.11;100.00
75157;BME280;63736;50.076;8.198;2023-09-08T04:15:39;99716.91;;;16.07;100.00
75157;BME280;63736;50.076;8.198;2023-09-08T04:18:04;99728.22;;;16.10;100.00
75157;BME280;63736;50.076;8.198;2023-09-08T04:20:29;99720.50;;;16.15;100.00
75157;BME280;63736;50.076;8.198;2023-09-08T04:22:55;99722.41;;;16.23;100.00
75157;BME280;63736;50.076;8.198;2023-09-08T04:25:21;99716.31;;;16.21;100.00
75157;BME280;63736;50.076;8.198;2023-09-08T04:27:46;99725.22;;;16.22;100.00
75157;BME280;63736;50.076;8.198;2023-09-08T04:30:12;99732.94;;;16.16;100.00
75157;BME280;63736;50.076;8.198;2023-09-08T04:32:38;99727.88;;;16.13;100.00
75157;BME280;63736;50.076;8.198;2023-09-08T04:35:03;99729.75;;;16.13;100.00
75157;BME280;63736;50.076;8.198;2023-09-08T04:37:29;99734.78;;;16.08;100.00
75157;BME280;63736;50.076;8.198;2023-09-08T04:39:56;99725.16;;;16.05;100.00
75157;BME280;63736;50.076;8.198;2023-09-08T04:42:21;99730.38;;;16.07;100.00
75157;BME280;63736;50.076;8.198;2023-09-08T04:44:48;99732.06;;;16.08;100.00
75157;BME280;63736;50.076;8.198;2023-09-08T04:47:13;99732.06;;;16.08;100.00
75157;BME280;63736;50.076;8.198;2023-09-08T04:49:38;99735.97;;;16.13;100.00
75157;BME280;63736;50.076;8.198;2023-09-08T04:52:04;99736.81;;;16.14;100.00
75157;BME280;63736;50.076;8.198;2023-09-08T04:54:29;99740.19;;;16.16;100.00
75157;BME280;63736;50.076;8.198;2023-09-08T04:56:55;99734.63;;;16.17;100.00
75157;BME280;63736;50.076;8.198;2023-09-08T04:59:21;99741.72;;;16.18;100.00
75157;BME280;63736;50.076;8.198;2023-09-08T05:01:47;99741.56;;;16.20;100.00
75157;BME280;63736;50.076;8.198;2023-09-08T05:04:13;99737.88;;;16.21;100.00
75157;BME280;63736;50.076;8.198;2023-09-08T05:06:38;99740.41;;;16.23;100.00
75157;BME280;63736;50.076;8.198;2023-09-08T05:09:03;99741.56;;;16.20;100.00
75157;BME280;63736;50.076;8.198;2023-09-08T05:11:28;99741.72;;;16.18;100.00
75157;BME280;63736;50.076;8.198;2023-09-08T05:13:54;99747.81;;;16.21;100.00
75157;BME280;63736;50.076;8.198;2023-09-08T05:16:19;99744.09;;;16.22;100.00
75157;BME280;63736;50.076;8.198;2023-09-08T05:18:51;99743.09;;;16.23;100.00
75157;BME280;63736;50.076;8.198;2023-09-08T05:21:16;99743.97;;;16.23;100.00
75157;BME280;63736;50.076;8.198;2023-09-08T05:23:42;99749.00;;;16.26;100.00
75157;BME280;63736;50.076;8.198;2023-09-08T05:26:07;99749.72;;;16.28;100.00
75157;BME280;63736;50.076;8.198;2023-09-08T05:28:32;99748.38;;;16.32;100.00
75157;BME280;63736;50.076;8.198;2023-09-08T05:30:57;99740.66;;;16.38;100.00
75157;BME280;63736;50.076;8.198;2023-09-08T05:33:23;99746.91;;;16.46;100.00
75157;BME280;63736;50.076;8.198;2023-09-08T05:35:48;99753.88;;;16.57;100.00
75157;BME280;63736;50.076;8.198;2023-09-08T05:38:13;99761.00;;;16.66;100.00
75157;BME280;63736;50.076;8.198;2023-09-08T05:40:39;99752.28;;;16.81;100.00
75157;BME280;63736;50.076;8.198;2023-09-08T05:43:04;99750.41;;;17.82;100.00
75157;BME280;63736;50.076;8.198;2023-09-08T05:45:33;99752.47;;;19.39;100.00
75157;BME280;63736;50.076;8.198;2023-09-08T05:47:58;99759.09;;;21.02;100.00
75157;BME280;63736;50.076;8.198;2023-09-08T05:50:23;99754.34;;;22.54;88.28
75157;BME280;63736;50.076;8.198;2023-09-08T05:52:49;99748.00;;;23.91;78.25
75157;BME280;63736;50.076;8.198;2023-09-08T05:55:14;99753.94;;;25.12;68.23
75157;BME280;63736;50.076;8.198;2023-09-08T05:57:39;99753.00;;;26.14;62.66
75157;BME280;63736;50.076;8.198;2023-09-08T06:00:06;99761.50;;;27.17;58.06
75157;BME280;63736;50.076;8.198;2023-09-08T06:02:32;99760.66;;;28.13;53.77
75157;BME280;63736;50.076;8.198;2023-09-08T06:04:57;99770.31;;;29.04;50.17
75157;BME280;63736;50.076;8.198;2023-09-08T06:07:22;99771.44;;;29.83;48.17
75157;BME280;63736;50.076;8.198;2023-09-08T06:09:47;99760.19;;;30.58;46.02
75157;BME280;63736;50.076;8.198;2023-09-08T06:12:13;99762.66;;;31.26;43.97
75157;BME280;63736;50.076;8.198;2023-09-08T06:14:38;99764.88;;;31.89;42.20
75157;BME280;63736;50.076;8.198;2023-09-08T06:17:03;99758.38;;;32.48;40.06
75157;BME280;63736;50.076;8.198;2023-09-08T06:19:28;99765.00;;;33.05;38.42
75157;BME280;63736;50.076;8.198;2023-09-08T06:21:54;99772.56;;;33.62;36.85
75157;BME280;63736;50.076;8.198;2023-09-08T06:24:19;99766.19;;;34.07;35.87
75157;BME280;63736;50.076;8.198;2023-09-08T06:26:44;99777.78;;;34.51;35.92
75157;BME280;63736;50.076;8.198;2023-09-08T06:29:09;99764.06;;;34.85;34.83
75157;BME280;63736;50.076;8.198;2023-09-08T06:31:35;99777.13;;;35.35;33.33
75157;BME280;63736;50.076;8.198;2023-09-08T06:34:00;99777.94;;;35.75;32.20
75157;BME280;63736;50.076;8.198;2023-09-08T06:36:26;99776.47;;;36.17;30.90
75157;BME280;63736;50.076;8.198;2023-09-08T06:38:51;99775.75;;;36.60;30.63
75157;BME280;63736;50.076;8.198;2023-09-08T06:41:16;99772.69;;;37.05;29.25
75157;BME280;63736;50.076;8.198;2023-09-08T06:43:44;99775.47;;;37.24;28.03
75157;BME280;63736;50.076;8.198;2023-09-08T06:46:09;99780.66;;;37.31;27.52
75157;BME280;63736;50.076;8.198;2023-09-08T06:48:34;99780.16;;;37.48;27.58
75157;BME280;63736;50.076;8.198;2023-09-08T06:51:00;99779.97;;;37.77;27.47
75157;BME280;63736;50.076;8.198;2023-09-08T06:53:25;99778.56;;;37.80;26.23
75157;BME280;63736;50.076;8.198;2023-09-08T06:55:51;99783.25;;;37.98;25.92
75157;BME280;63736;50.076;8.198;2023-09-08T06:58:16;99779.69;;;38.26;26.24
75157;BME280;63736;50.076;8.198;2023-09-08T07:00:42;99775.88;;;38.63;26.05
75157;BME280;63736;50.076;8.198;2023-09-08T07:03:07;99768.53;;;38.67;25.23
75157;BME280;63736;50.076;8.198;2023-09-08T07:05:33;99766.56;;;38.82;25.27
75157;BME280;63736;50.076;8.198;2023-09-08T07:07:59;99773.16;;;39.00;24.82
75157;BME280;63736;50.076;8.198;2023-09-08T07:10:24;99767.78;;;39.04;24.34
75157;BME280;63736;50.076;8.198;2023-09-08T07:12:49;99765.78;;;39.32;24.42
75157;BME280;63736;50.076;8.198;2023-09-08T07:15:15;99766.25;;;39.34;24.15
75157;BME280;63736;50.076;8.198;2023-09-08T07:17:40;99772.72;;;39.21;24.01
75157;BME280;63736;50.076;8.198;2023-09-08T07:20:06;99768.44;;;39.37;23.86
75157;BME280;63736;50.076;8.198;2023-09-08T07:22:31;99768.81;;;39.44;23.70
75157;BME280;63736;50.076;8.198;2023-09-08T07:24:56;99774.31;;;39.36;23.45
75157;BME280;63736;50.076;8.198;2023-09-08T07:27:22;99775.03;;;39.41;23.66
75157;BME280;63736;50.076;8.198;2023-09-08T07:29:47;99776.53;;;39.25;23.07
75157;BME280;63736;50.076;8.198;2023-09-08T07:32:15;99784.59;;;39.26;23.25
75157;BME280;63736;50.076;8.198;2023-09-08T07:34:40;99776.88;;;39.09;23.50
75157;BME280;63736;50.076;8.198;2023-09-08T07:37:05;99775.75;;;38.96;23.06
75157;BME280;63736;50.076;8.198;2023-09-08T07:39:30;99779.84;;;39.27;23.13
75157;BME280;63736;50.076;8.198;2023-09-08T07:41:56;99789.50;;;39.43;22.75
75157;BME280;63736;50.076;8.198;2023-09-08T07:44:22;99788.38;;;39.44;22.73
75157;BME280;63736;50.076;8.198;2023-09-08T07:46:47;99787.13;;;39.73;22.40
75157;BME280;63736;50.076;8.198;2023-09-08T07:49:14;99782.50;;;39.69;22.06
75157;BME280;63736;50.076;8.198;2023-09-08T07:51:40;99787.44;;;39.49;22.27
75157;BME280;63736;50.076;8.198;2023-09-08T07:54:05;99782.00;;;39.30;22.15
75157;BME280;63736;50.076;8.198;2023-09-08T07:56:31;99784.22;;;39.19;22.54
75157;BME280;63736;50.076;8.198;2023-09-08T07:58:57;99783.66;;;39.54;21.95
75157;BME280;63736;50.076;8.198;2023-09-08T08:01:23;99785.94;;;40.20;22.21
75157;BME280;63736;50.076;8.198;2023-09-08T08:03:48;99783.00;;;40.56;21.39
75157;BME280;63736;50.076;8.198;2023-09-08T08:06:13;99789.84;;;40.50;21.51
75157;BME280;63736;50.076;8.198;2023-09-08T08:08:39;99788.50;;;40.79;21.15
75157;BME280;63736;50.076;8.198;2023-09-08T08:11:12;99794.38;;;40.60;21.04
75157;BME280;63736;50.076;8.198;2023-09-08T08:13:38;99784.63;;;41.06;20.84
75157;BME280;63736;50.076;8.198;2023-09-08T08:16:03;99782.16;;;41.31;20.89
75157;BME280;63736;50.076;8.198;2023-09-08T08:18:28;99786.13;;;41.30;21.01
75157;BME280;63736;50.076;8.198;2023-09-08T08:20:54;99785.47;;;41.42;20.45
75157;BME280;63736;50.076;8.198;2023-09-08T08:23:19;99779.84;;;41.16;20.86
75157;BME280;63736;50.076;8.198;2023-09-08T08:25:44;99783.78;;;41.67;20.60
75157;BME280;63736;50.076;8.198;2023-09-08T08:28:10;99783.97;;;41.88;20.10
75157;BME280;63736;50.076;8.198;2023-09-08T08:30:35;99785.09;;;41.96;19.86
75157;BME280;63736;50.076;8.198;2023-09-08T08:33:01;99785.75;;;42.02;19.62
75157;BME280;63736;50.076;8.198;2023-09-08T08:35:26;99787.41;;;41.94;20.09
75157;BME280;63736;50.076;8.198;2023-09-08T08:37:51;99779.09;;;42.15;19.74
75157;BME280;63736;50.076;8.198;2023-09-08T08:40:17;99774.94;;;42.30;19.54
75157;BME280;63736;50.076;8.198;2023-09-08T08:42:42;99786.28;;;41.86;19.68
75157;BME280;63736;50.076;8.198;2023-09-08T08:45:08;99782.22;;;42.14;19.93
75157;BME280;63736;50.076;8.198;2023-09-08T08:47:33;99784.41;;;42.08;19.77
75157;BME280;63736;50.076;8.198;2023-09-08T08:50:02;99784.75;;;42.06;19.27
75157;BME280;63736;50.076;8.198;2023-09-08T08:52:29;99786.34;;;42.16;19.35
75157;BME280;63736;50.076;8.198;2023-09-08T08:54:54;99782.56;;;42.21;19.51
75157;BME280;63736;50.076;8.198;2023-09-08T08:57:20;99775.06;;;41.69;19.81
75157;BME280;63736;50.076;8.198;2023-09-08T08:59:47;99776.03;;;41.82;19.75
75157;BME280;63736;50.076;8.198;2023-09-08T09:02:14;99781.78;;;42.03;19.70
75157;BME280;63736;50.076;8.198;2023-09-08T09:04:40;99780.91;;;42.11;19.64
75157;BME280;63736;50.076;8.198;2023-09-08T09:07:07;99781.88;;;42.33;19.29
75157;BME280;63736;50.076;8.198;2023-09-08T09:09:32;99779.03;;;41.68;19.48
75157;BME280;63736;50.076;8.198;2023-09-08T09:11:57;99779.03;;;41.24;19.96
75157;BME280;63736;50.076;8.198;2023-09-08T09:14:23;99776.06;;;41.38;19.98
75157;BME280;63736;50.076;8.198;2023-09-08T09:16:48;99779.53;;;41.61;19.68
75157;BME280;63736;50.076;8.198;2023-09-08T09:19:22;99776.38;;;41.19;20.47
75157;BME280;63736;50.076;8.198;2023-09-08T09:21:53;99768.97;;;41.14;20.18
75157;BME280;63736;50.076;8.198;2023-09-08T09:24:40;99777.19;;;41.28;20.20
75157;BME280;63736;50.076;8.198;2023-09-08T09:27:11;99784.47;;;41.38;20.54
75157;BME280;63736;50.076;8.198;2023-09-08T09:29:45;99779.72;;;41.56;20.26
75157;BME280;63736;50.076;8.198;2023-09-08T09:32:12;99776.22;;;41.33;19.93
75157;BME280;63736;50.076;8.198;2023-09-08T09:34:53;99774.75;;;41.09;20.46
75157;BME280;63736;50.076;8.198;2023-09-08T09:37:19;99771.69;;;40.88;20.85
75157;BME280;63736;50.076;8.198;2023-09-08T09:39:53;99770.59;;;40.48;20.78
75157;BME280;63736;50.076;8.198;2023-09-08T09:42:19;99775.28;;;39.99;21.24
75157;BME280;63736;50.076;8.198;2023-09-08T09:44:51;99771.25;;;39.37;22.19
75157;BME280;63736;50.076;8.198;2023-09-08T09:47:17;99770.28;;;38.91;22.62
75157;BME280;63736;50.076;8.198;2023-09-08T09:49:43;99778.44;;;38.46;23.57
75157;BME280;63736;50.076;8.198;2023-09-08T09:52:11;99776.78;;;37.51;24.24
75157;BME280;63736;50.076;8.198;2023-09-08T09:54:38;99767.84;;;36.92;24.63
75157;BME280;63736;50.076;8.198;2023-09-08T09:57:04;99766.47;;;36.16;25.43
75157;BME280;63736;50.076;8.198;2023-09-08T09:59:30;99766.78;;;35.46;26.12
75157;BME280;63736;50.076;8.198;2023-09-08T10:01:56;99752.34;;;35.04;27.18
75157;BME280;63736;50.076;8.198;2023-09-08T10:04:21;99757.75;;;34.64;27.54
75157;BME280;63736;50.076;8.198;2023-09-08T10:06:47;99747.06;;;34.06;28.33
75157;BME280;63736;50.076;8.198;2023-09-08T10:09:13;99758.44;;;33.48;28.76
75157;BME280;63736;50.076;8.198;2023-09-08T10:11:47;99758.38;;;33.11;29.61
75157;BME280;63736;50.076;8.198;2023-09-08T10:14:12;99751.78;;;32.54;30.47
75157;BME280;63736;50.076;8.198;2023-09-08T10:16:40;99748.75;;;32.13;31.05
75157;BME280;63736;50.076;8.198;2023-09-08T10:19:09;99739.47;;;31.87;31.56
75157;BME280;63736;50.076;8.198;2023-09-08T10:21:46;99744.88;;;31.71;32.06
75157;BME280;63736;50.076;8.198;2023-09-08T10:24:28;99749.00;;;31.41;32.52
75157;BME280;63736;50.076;8.198;2023-09-08T10:27:04;99741.94;;;31.01;33.10
75157;BME280;63736;50.076;8.198;2023-09-08T10:29:32;99733.72;;;30.79;33.78
75157;BME280;63736;50.076;8.198;2023-09-08T10:31:59;99738.09;;;30.53;33.95
75157;BME280;63736;50.076;8.198;2023-09-08T10:34:25;99738.34;;;30.34;34.49
75157;BME280;63736;50.076;8.198;2023-09-08T10:36:51;99729.63;;;30.20;34.36
75157;BME280;63736;50.076;8.198;2023-09-08T10:39:31;99733.75;;;30.01;34.88
75157;BME280;63736;50.076;8.198;2023-09-08T10:44:55;99734.31;;;30.03;34.98
75157;BME280;63736;50.076;8.198;2023-09-08T10:47:32;99726.50;;;29.94;35.20
75157;BME280;63736;50.076;8.198;2023-09-08T10:49:59;99734.84;;;29.99;34.93
75157;BME280;63736;50.076;8.198;2023-09-08T10:52:25;99729.88;;;29.84;35.37
75157;BME280;63736;50.076;8.198;2023-09-08T10:54:53;99720.13;;;29.77;35.40
75157;BME280;63736;50.076;8.198;2023-09-08T10:57:21;99716.22;;;29.73;36.06
75157;BME280;63736;50.076;8.198;2023-09-08T10:59:59;99710.28;;;29.81;35.71
75157;BME280;63736;50.076;8.198;2023-09-08T11:02:33;99712.19;;;29.80;35.53
75157;BME280;63736;50.076;8.198;2023-09-08T11:05:04;99712.28;;;29.86;35.77
75157;BME280;63736;50.076;8.198;2023-09-08T11:07:31;99724.31;;;29.96;35.75
75157;BME280;63736;50.076;8.198;2023-09-08T11:09:57;99712.34;;;30.08;35.77
75157;BME280;63736;50.076;8.198;2023-09-08T11:12:26;99718.53;;;30.15;36.16
75157;BME280;63736;50.076;8.198;2023-09-08T11:14:51;99713.38;;;30.24;35.26
75157;BME280;63736;50.076;8.198;2023-09-08T11:17:17;99709.75;;;30.18;34.61
75157;BME280;63736;50.076;8.198;2023-09-08T11:19:45;99709.00;;;30.23;34.76
75157;BME280;63736;50.076;8.198;2023-09-08T11:22:10;99708.22;;;30.27;35.51
75157;BME280;63736;50.076;8.198;2023-09-08T11:24:35;99709.69;;;30.35;35.34
75157;BME280;63736;50.076;8.198;2023-09-08T11:27:00;99704.00;;;30.42;35.31
75157;BME280;63736;50.076;8.198;2023-09-08T11:29:26;99712.59;;;30.45;35.36
75157;BME280;63736;50.076;8.198;2023-09-08T11:31:53;99699.16;;;30.49;35.38
75157;BME280;63736;50.076;8.198;2023-09-08T11:34:20;99710.81;;;30.56;35.18
75157;BME280;63736;50.076;8.198;2023-09-08T11:36:46;99704.28;;;30.62;34.99
75157;BME280;63736;50.076;8.198;2023-09-08T11:39:11;99709.94;;;30.51;34.45
75157;BME280;63736;50.076;8.198;2023-09-08T11:41:36;99699.31;;;30.42;34.89
75157;BME280;63736;50.076;8.198;2023-09-08T11:44:02;99696.31;;;30.44;34.51
75157;BME280;63736;50.076;8.198;2023-09-08T11:46:28;99697.13;;;30.44;34.91
75157;BME280;63736;50.076;8.198;2023-09-08T11:48:53;99693.28;;;30.45;35.13
75157;BME280;63736;50.076;8.198;2023-09-08T11:51:23;99693.91;;;30.47;34.82
75157;BME280;63736;50.076;8.198;2023-09-08T11:53:48;99695.88;;;30.52;35.47
75157;BME280;63736;50.076;8.198;2023-09-08T11:56:14;99699.22;;;30.54;35.06
75157;BME280;63736;50.076;8.198;2023-09-08T11:58:40;99694.03;;;30.58;34.87
75157;BME280;63736;50.076;8.198;2023-09-08T12:01:06;99697.94;;;30.62;34.89
75157;BME280;63736;50.076;8.198;2023-09-08T12:03:32;99686.78;;;30.52;35.02
75157;BME280;63736;50.076;8.198;2023-09-08T12:05:57;99702.09;;;30.42;34.86
75157;BME280;63736;50.076;8.198;2023-09-08T12:08:25;99696.44;;;30.32;35.08
75157;BME280;63736;50.076;8.198;2023-09-08T12:10:53;99699.44;;;30.30;35.29
75157;BME280;63736;50.076;8.198;2023-09-08T12:13:25;99696.69;;;30.30;35.25
75157;BME280;63736;50.076;8.198;2023-09-08T12:15:50;99690.84;;;30.27;35.08
75157;BME280;63736;50.076;8.198;2023-09-08T12:18:15;99686.44;;;30.26;35.23
75157;BME280;63736;50.076;8.198;2023-09-08T12:20:41;99690.28;;;30.25;35.60
75157;BME280;63736;50.076;8.198;2023-09-08T12:25:51;99694.06;;;30.19;35.20
75157;BME280;63736;50.076;8.198;2023-09-08T12:28:18;99683.47;;;30.10;35.66
75157;BME280;63736;50.076;8.198;2023-09-08T12:30:44;99679.81;;;30.05;35.26
75157;BME280;63736;50.076;8.198;2023-09-08T12:33:10;99682.31;;;30.06;35.42
75157;BME280;63736;50.076;8.198;2023-09-08T12:35:36;99679.56;;;30.06;35.59
75157;BME280;63736;50.076;8.198;2023-09-08T12:38:03;99675.97;;;30.06;35.86
75157;BME280;63736;50.076;8.198;2023-09-08T12:40:32;99674.13;;;30.11;35.94
75157;BME280;63736;50.076;8.198;2023-09-08T12:42:58;99679.44;;;30.18;35.85
75157;BME280;63736;50.076;8.198;2023-09-08T12:45:25;99674.81;;;30.24;35.83
75157;BME280;63736;50.076;8.198;2023-09-08T12:47:51;99683.03;;;30.19;35.87
75157;BME280;63736;50.076;8.198;2023-09-08T12:50:17;99678.63;;;30.18;35.87
75157;BME280;63736;50.076;8.198;2023-09-08T12:52:42;99669.28;;;30.19;36.29
75157;BME280;63736;50.076;8.198;2023-09-08T12:55:08;99680.28;;;30.19;35.67